This is the latest recevied weather packets stored in our database for station/object DG8SF-13. If no packets are shown the sender has not sent any weather packets the latest 10 day(s).
| Time | Temp. | Humidity | Pressure | Rain* | Wind** | Luminosity | Snow |
|---|---|---|---|---|---|---|---|
| 1788113329 | 20.56° C | 72% | 1014.9 hPa | 0 mm | - | - | - |
| 1788113017 | 21.11° C | 72% | 1014.8 hPa | 0 mm | - | - | - |
| 1788112704 | 21.11° C | 72% | 1014.8 hPa | 0 mm | - | - | - |
| 1788112395 | 21.11° C | 73% | 1014.8 hPa | 0 mm | - | - | - |
| 1788112057 | 21.11° C | 73% | 1014.7 hPa | 0 mm | - | - | - |
| 1788111746 | 21.67° C | 72% | 1014.6 hPa | 0 mm | - | - | - |
| 1788111421 | 21.67° C | 71% | 1014.6 hPa | 0 mm | - | - | - |
| 1788111110 | 22.22° C | 70% | 1014.5 hPa | 0 mm | - | - | - |
| 1788110796 | 22.22° C | 68% | 1014.6 hPa | 0 mm | - | - | - |
| 1788110487 | 23.33° C | 67% | 1014.5 hPa | 0 mm | - | - | - |
| 1788110173 | 23.33° C | 64% | 1014.6 hPa | 0 mm | - | - | - |
| 1788109862 | 23.89° C | 64% | 1014.5 hPa | 0 mm | - | - | - |
| 1788109538 | 23.89° C | 62% | 1014.5 hPa | 0 mm | - | - | - |
| 1788109227 | 25° C | 60% | 1014.5 hPa | 0 mm | - | - | - |
| 1788108900 | 26.11° C | 58% | 1014.4 hPa | 0 mm | - | - | - |
| 1788108592 | 26.11° C | 58% | 1014.4 hPa | 0 mm | - | - | - |
| 1788108277 | 26.11° C | 57% | 1014.3 hPa | 0 mm | - | - | - |
| 1788107966 | 26.11° C | 57% | 1014.3 hPa | 0 mm | - | - | - |
| 1788107654 | 25.56° C | 58% | 1014.3 hPa | 0 mm | - | - | - |
| 1788107342 | 25.56° C | 58% | 1014.2 hPa | 0 mm | - | - | - |
| 1788107029 | 25.56° C | 59% | 1014.2 hPa | 0 mm | - | - | - |
| 1788106717 | 25° C | 61% | 1014.4 hPa | 0 mm | - | - | - |
| 1788106405 | 24.44° C | 62% | 1014.4 hPa | 0 mm | - | - | - |
| 1788106095 | 24.44° C | 62% | 1014.3 hPa | 0 mm | - | - | - |
| 1788105780 | 24.44° C | 62% | 1014.4 hPa | 0 mm | - | - | - |
* Rain latest hour (hover to see other rain measurements)
** Current wind speed in m/s (hover to see current wind gust speed)